Accueil
METAR-TAF:

METAR-TAF

Aéroports :

Dakar, Sénégal

Aéroport international Léopold-Sédar-Senghor

latitude: 14-44N, longitude: 017-30W, altitude: 27 m

Observation

Le bulletin a été fait il y a 21 minutes, à 20:00 UTC
Vent 8 kt de nord
Température 19°C
Humidité 88%
Pression 1012 hPa
Visibilité: 8000 m
Quelques nuages à une hauteur de 800 ft

METAR: GOOY 222000Z 36008KT 8000 FEW008 19/17 Q1012

Heure: 20:21 (20:21 UTC)

Prévision

Le bulletin a été fait il y a 2 heures et 51 minutes, à 17:30 UTC
Prévision valable du 22 à 18 UTC au 23 à 24 UTC
Vent 10 kt de nord/nord-ouest
Visibilité 10 km ou plus
Nuages épars à une hauteur de 800 ft

TAF: GOOY 221730Z 2218/2324 34010KT 9999 SCT008

Observations et prévisions météorologiques de plus de 4000 aéroports (messages METAR et TAF).

Les stations disponibles sont représentées par des disques jaunes et rouges sur la carte.

Passer la souris dessus pour voir le nom de la station.

Cliquer dessus pour voir les observations et prévisions météorologiques.

Pour changer de carte: cliquez sur les boutons verts avec une croix noire pour zoomer, sur le bouton vert avec un tiret pour effectuer un zoom arrière, ou sur les flèches vertes pour les cartes adjacentes.


METAR-TAF: